sensor_id;sensor_type;location;lat;lon;timestamp;pressure;altitude;pressure_sealevel;temperature;humidity
77017;BME280;65949;53.132;17.930;2024-01-10T00:00:41;103062.55;;;-6.06;76.85
77017;BME280;65949;53.132;17.930;2024-01-10T00:03:28;103059.52;;;-6.03;77.34
77017;BME280;65949;53.132;17.930;2024-01-10T00:05:54;103056.76;;;-6.03;77.40
77017;BME280;65949;53.132;17.930;2024-01-10T00:08:21;103056.70;;;-5.96;77.60
77017;BME280;65949;53.132;17.930;2024-01-10T00:10:48;103053.33;;;-5.88;77.63
77017;BME280;65949;53.132;17.930;2024-01-10T00:13:14;103047.83;;;-5.78;77.67
77017;BME280;65949;53.132;17.930;2024-01-10T00:15:41;103046.71;;;-5.68;77.65
77017;BME280;65949;53.132;17.930;2024-01-10T00:18:07;103039.20;;;-5.61;77.66
77017;BME280;65949;53.132;17.930;2024-01-10T00:20:34;103032.48;;;-5.53;77.54
77017;BME280;65949;53.132;17.930;2024-01-10T00:23:00;103030.92;;;-5.45;77.92
77017;BME280;65949;53.132;17.930;2024-01-10T00:25:27;103028.34;;;-5.38;78.04
77017;BME280;65949;53.132;17.930;2024-01-10T00:27:53;103021.68;;;-5.38;78.17
77017;BME280;65949;53.132;17.930;2024-01-10T00:30:21;103013.31;;;-5.39;78.54
77017;BME280;65949;53.132;17.930;2024-01-10T00:32:47;103005.81;;;-5.41;79.03
77017;BME280;65949;53.132;17.930;2024-01-10T00:35:14;103005.80;;;-5.46;79.47
77017;BME280;65949;53.132;17.930;2024-01-10T00:37:40;103006.20;;;-5.53;79.50
77017;BME280;65949;53.132;17.930;2024-01-10T00:40:08;103000.43;;;-5.56;79.80
77017;BME280;65949;53.132;17.930;2024-01-10T00:42:35;102994.23;;;-5.57;79.92
77017;BME280;65949;53.132;17.930;2024-01-10T00:45:02;102993.08;;;-5.57;80.11
77017;BME280;65949;53.132;17.930;2024-01-10T00:47:29;102991.01;;;-5.60;80.43
77017;BME280;65949;53.132;17.930;2024-01-10T00:49:56;102989.47;;;-5.59;80.53
77017;BME280;65949;53.132;17.930;2024-01-10T00:52:22;102987.53;;;-5.58;80.52
77017;BME280;65949;53.132;17.930;2024-01-10T00:54:49;102996.73;;;-5.56;80.62
77017;BME280;65949;53.132;17.930;2024-01-10T00:57:16;102993.92;;;-5.55;80.82
77017;BME280;65949;53.132;17.930;2024-01-10T00:59:42;102991.41;;;-5.52;80.85
77017;BME280;65949;53.132;17.930;2024-01-10T01:02:09;102992.18;;;-5.51;81.52
77017;BME280;65949;53.132;17.930;2024-01-10T01:04:35;102993.24;;;-5.51;81.40
77017;BME280;65949;53.132;17.930;2024-01-10T01:07:02;102994.23;;;-5.51;81.39
77017;BME280;65949;53.132;17.930;2024-01-10T01:09:29;102997.95;;;-5.51;81.62
77017;BME280;65949;53.132;17.930;2024-01-10T01:11:55;103002.87;;;-5.45;81.61
77017;BME280;65949;53.132;17.930;2024-01-10T01:14:22;103002.29;;;-5.42;81.90
77017;BME280;65949;53.132;17.930;2024-01-10T01:16:48;103004.95;;;-5.33;81.92
77017;BME280;65949;53.132;17.930;2024-01-10T01:19:15;103002.91;;;-5.27;82.21
77017;BME280;65949;53.132;17.930;2024-01-10T01:21:42;103005.29;;;-5.22;82.23
77017;BME280;65949;53.132;17.930;2024-01-10T01:24:09;103005.90;;;-5.15;82.37
77017;BME280;65949;53.132;17.930;2024-01-10T01:26:36;103005.62;;;-5.08;82.36
77017;BME280;65949;53.132;17.930;2024-01-10T01:29:02;103000.80;;;-5.02;82.23
77017;BME280;65949;53.132;17.930;2024-01-10T01:31:29;102998.23;;;-4.96;82.33
77017;BME280;65949;53.132;17.930;2024-01-10T01:33:56;102995.96;;;-4.89;82.40
77017;BME280;65949;53.132;17.930;2024-01-10T01:36:24;102990.32;;;-4.86;82.32
77017;BME280;65949;53.132;17.930;2024-01-10T01:38:50;102987.39;;;-4.85;82.32
77017;BME280;65949;53.132;17.930;2024-01-10T01:41:17;102982.88;;;-4.83;82.54
77017;BME280;65949;53.132;17.930;2024-01-10T01:43:44;102983.09;;;-4.82;82.43
77017;BME280;65949;53.132;17.930;2024-01-10T01:46:12;102978.98;;;-4.83;82.21
77017;BME280;65949;53.132;17.930;2024-01-10T01:48:39;102978.83;;;-4.86;82.77
77017;BME280;65949;53.132;17.930;2024-01-10T01:51:07;102975.04;;;-4.91;82.67
77017;BME280;65949;53.132;17.930;2024-01-10T01:53:36;102974.34;;;-4.93;82.93
77017;BME280;65949;53.132;17.930;2024-01-10T01:56:06;102978.22;;;-4.95;83.18
77017;BME280;65949;53.132;17.930;2024-01-10T01:58:34;102973.14;;;-4.98;83.36
77017;BME280;65949;53.132;17.930;2024-01-10T02:01:02;102975.36;;;-5.01;83.53
77017;BME280;65949;53.132;17.930;2024-01-10T02:03:31;102977.08;;;-5.02;84.02
77017;BME280;65949;53.132;17.930;2024-01-10T02:05:59;102977.00;;;-5.03;84.03
77017;BME280;65949;53.132;17.930;2024-01-10T02:08:26;102970.17;;;-5.05;84.25
77017;BME280;65949;53.132;17.930;2024-01-10T02:10:52;102964.30;;;-5.06;84.38
77017;BME280;65949;53.132;17.930;2024-01-10T02:13:19;102964.09;;;-5.05;84.35
77017;BME280;65949;53.132;17.930;2024-01-10T02:15:46;102961.31;;;-5.02;84.42
77017;BME280;65949;53.132;17.930;2024-01-10T02:18:12;102961.13;;;-4.96;84.44
77017;BME280;65949;53.132;17.930;2024-01-10T02:20:43;102956.64;;;-4.89;84.58
77017;BME280;65949;53.132;17.930;2024-01-10T02:23:10;102949.05;;;-4.85;84.75
77017;BME280;65949;53.132;17.930;2024-01-10T02:25:38;102952.77;;;-4.77;84.83
77017;BME280;65949;53.132;17.930;2024-01-10T02:28:05;102951.40;;;-4.68;84.84
77017;BME280;65949;53.132;17.930;2024-01-10T02:30:32;102951.80;;;-4.62;84.77
77017;BME280;65949;53.132;17.930;2024-01-10T02:32:59;102952.42;;;-4.55;84.83
77017;BME280;65949;53.132;17.930;2024-01-10T02:35:26;102946.60;;;-4.52;84.98
77017;BME280;65949;53.132;17.930;2024-01-10T02:37:54;102946.73;;;-4.49;84.89
77017;BME280;65949;53.132;17.930;2024-01-10T02:40:21;102941.71;;;-4.48;84.93
77017;BME280;65949;53.132;17.930;2024-01-10T02:42:47;102945.94;;;-4.48;84.68
77017;BME280;65949;53.132;17.930;2024-01-10T02:45:14;102946.20;;;-4.49;84.69
77017;BME280;65949;53.132;17.930;2024-01-10T02:47:41;102949.45;;;-4.49;85.11
77017;BME280;65949;53.132;17.930;2024-01-10T02:50:07;102950.20;;;-4.50;85.08
77017;BME280;65949;53.132;17.930;2024-01-10T02:52:34;102953.16;;;-4.51;84.91
77017;BME280;65949;53.132;17.930;2024-01-10T02:55:01;102954.07;;;-4.52;85.01
77017;BME280;65949;53.132;17.930;2024-01-10T02:57:27;102954.96;;;-4.56;85.22
77017;BME280;65949;53.132;17.930;2024-01-10T02:59:54;102953.95;;;-4.61;85.48
77017;BME280;65949;53.132;17.930;2024-01-10T03:02:20;102953.04;;;-4.63;85.84
77017;BME280;65949;53.132;17.930;2024-01-10T03:04:49;102957.92;;;-4.62;86.06
77017;BME280;65949;53.132;17.930;2024-01-10T03:07:16;102956.03;;;-4.62;85.88
77017;BME280;65949;53.132;17.930;2024-01-10T03:09:42;102955.69;;;-4.59;86.44
77017;BME280;65949;53.132;17.930;2024-01-10T03:12:11;102952.55;;;-4.58;86.47
77017;BME280;65949;53.132;17.930;2024-01-10T03:14:37;102954.84;;;-4.54;86.42
77017;BME280;65949;53.132;17.930;2024-01-10T03:17:04;102949.95;;;-4.51;86.53
77017;BME280;65949;53.132;17.930;2024-01-10T03:19:31;102947.52;;;-4.51;86.70
77017;BME280;65949;53.132;17.930;2024-01-10T03:21:58;102942.81;;;-4.49;86.60
77017;BME280;65949;53.132;17.930;2024-01-10T03:24:24;102946.17;;;-4.46;86.74
77017;BME280;65949;53.132;17.930;2024-01-10T03:26:53;102945.23;;;-4.42;86.80
77017;BME280;65949;53.132;17.930;2024-01-10T03:29:20;102942.16;;;-4.42;86.76
77017;BME280;65949;53.132;17.930;2024-01-10T03:31:46;102941.50;;;-4.47;86.67
77017;BME280;65949;53.132;17.930;2024-01-10T03:34:13;102938.48;;;-4.50;86.59
77017;BME280;65949;53.132;17.930;2024-01-10T03:36:40;102934.52;;;-4.52;87.04
77017;BME280;65949;53.132;17.930;2024-01-10T03:39:07;102932.85;;;-4.55;86.67
77017;BME280;65949;53.132;17.930;2024-01-10T03:41:33;102929.96;;;-4.55;87.04
77017;BME280;65949;53.132;17.930;2024-01-10T03:44:00;102929.74;;;-4.54;86.85
77017;BME280;65949;53.132;17.930;2024-01-10T03:46:26;102924.96;;;-4.53;87.12
77017;BME280;65949;53.132;17.930;2024-01-10T03:48:53;102924.51;;;-4.49;86.85
77017;BME280;65949;53.132;17.930;2024-01-10T03:51:20;102916.20;;;-4.44;87.00
77017;BME280;65949;53.132;17.930;2024-01-10T03:53:47;102913.72;;;-4.42;87.00
77017;BME280;65949;53.132;17.930;2024-01-10T03:56:17;102907.71;;;-4.39;86.97
77017;BME280;65949;53.132;17.930;2024-01-10T03:58:43;102904.75;;;-4.33;87.03
77017;BME280;65949;53.132;17.930;2024-01-10T04:01:11;102905.05;;;-4.25;87.01
77017;BME280;65949;53.132;17.930;2024-01-10T04:03:37;102905.59;;;-4.20;86.86
77017;BME280;65949;53.132;17.930;2024-01-10T04:06:04;102904.70;;;-4.17;86.40
77017;BME280;65949;53.132;17.930;2024-01-10T04:08:32;102905.81;;;-4.16;86.53
77017;BME280;65949;53.132;17.930;2024-01-10T04:10:58;102895.95;;;-4.18;86.44
77017;BME280;65949;53.132;17.930;2024-01-10T04:13:25;102900.99;;;-4.15;86.02
77017;BME280;65949;53.132;17.930;2024-01-10T04:15:52;102905.35;;;-4.16;85.89
77017;BME280;65949;53.132;17.930;2024-01-10T04:18:19;102912.65;;;-4.22;85.85
77017;BME280;65949;53.132;17.930;2024-01-10T04:20:45;102908.23;;;-4.29;85.81
77017;BME280;65949;53.132;17.930;2024-01-10T04:23:13;102906.88;;;-4.34;85.81
77017;BME280;65949;53.132;17.930;2024-01-10T04:25:39;102907.34;;;-4.38;85.86
77017;BME280;65949;53.132;17.930;2024-01-10T04:28:06;102907.55;;;-4.42;86.03
77017;BME280;65949;53.132;17.930;2024-01-10T04:30:33;102900.32;;;-4.45;86.15
77017;BME280;65949;53.132;17.930;2024-01-10T04:32:59;102886.36;;;-4.47;86.13
77017;BME280;65949;53.132;17.930;2024-01-10T04:35:26;102885.70;;;-4.45;86.04
77017;BME280;65949;53.132;17.930;2024-01-10T04:37:53;102884.02;;;-4.42;86.20
77017;BME280;65949;53.132;17.930;2024-01-10T04:40:19;102887.84;;;-4.41;86.34
77017;BME280;65949;53.132;17.930;2024-01-10T04:42:46;102889.50;;;-4.38;86.68
77017;BME280;65949;53.132;17.930;2024-01-10T04:45:13;102889.61;;;-4.35;86.18
77017;BME280;65949;53.132;17.930;2024-01-10T04:47:39;102889.26;;;-4.29;86.32
77017;BME280;65949;53.132;17.930;2024-01-10T04:50:07;102891.05;;;-4.26;86.54
77017;BME280;65949;53.132;17.930;2024-01-10T04:52:33;102892.05;;;-4.21;86.40
77017;BME280;65949;53.132;17.930;2024-01-10T04:55:00;102888.96;;;-4.18;86.63
77017;BME280;65949;53.132;17.930;2024-01-10T04:57:27;102881.79;;;-4.14;86.67
77017;BME280;65949;53.132;17.930;2024-01-10T04:59:53;102880.25;;;-4.17;86.11
77017;BME280;65949;53.132;17.930;2024-01-10T05:02:20;102879.50;;;-4.21;86.23
77017;BME280;65949;53.132;17.930;2024-01-10T05:04:46;102880.03;;;-4.26;86.43
77017;BME280;65949;53.132;17.930;2024-01-10T05:07:13;102878.88;;;-4.26;86.65
77017;BME280;65949;53.132;17.930;2024-01-10T05:09:40;102884.01;;;-4.27;86.77
77017;BME280;65949;53.132;17.930;2024-01-10T05:12:06;102879.14;;;-4.28;86.81
77017;BME280;65949;53.132;17.930;2024-01-10T05:14:33;102880.17;;;-4.31;87.06
77017;BME280;65949;53.132;17.930;2024-01-10T05:16:59;102881.44;;;-4.34;86.93
77017;BME280;65949;53.132;17.930;2024-01-10T05:19:26;102881.41;;;-4.37;87.46
77017;BME280;65949;53.132;17.930;2024-01-10T05:21:53;102883.16;;;-4.40;87.46
77017;BME280;65949;53.132;17.930;2024-01-10T05:24:21;102880.17;;;-4.41;87.76
77017;BME280;65949;53.132;17.930;2024-01-10T05:26:47;102880.22;;;-4.44;87.88
77017;BME280;65949;53.132;17.930;2024-01-10T05:29:17;102883.77;;;-4.46;87.81
77017;BME280;65949;53.132;17.930;2024-01-10T05:31:46;102882.14;;;-4.47;87.98
77017;BME280;65949;53.132;17.930;2024-01-10T05:34:13;102881.18;;;-4.48;88.10
77017;BME280;65949;53.132;17.930;2024-01-10T05:36:39;102878.64;;;-4.48;88.06
77017;BME280;65949;53.132;17.930;2024-01-10T05:39:06;102879.47;;;-4.48;87.97
77017;BME280;65949;53.132;17.930;2024-01-10T05:41:33;102882.17;;;-4.47;88.31
77017;BME280;65949;53.132;17.930;2024-01-10T05:43:59;102880.62;;;-4.47;88.45
77017;BME280;65949;53.132;17.930;2024-01-10T05:46:26;102877.90;;;-4.50;88.82
77017;BME280;65949;53.132;17.930;2024-01-10T05:48:54;102876.09;;;-4.51;88.84
77017;BME280;65949;53.132;17.930;2024-01-10T05:51:21;102872.23;;;-4.51;89.09
77017;BME280;65949;53.132;17.930;2024-01-10T05:53:48;102868.70;;;-4.52;88.85
77017;BME280;65949;53.132;17.930;2024-01-10T05:56:14;102867.04;;;-4.52;89.18
77017;BME280;65949;53.132;17.930;2024-01-10T05:58:41;102869.66;;;-4.51;89.13
77017;BME280;65949;53.132;17.930;2024-01-10T06:01:07;102869.09;;;-4.50;89.16
77017;BME280;65949;53.132;17.930;2024-01-10T06:03:36;102874.58;;;-4.48;89.11
77017;BME280;65949;53.132;17.930;2024-01-10T06:06:04;102869.48;;;-4.48;88.88
77017;BME280;65949;53.132;17.930;2024-01-10T06:08:30;102870.48;;;-4.48;89.11
77017;BME280;65949;53.132;17.930;2024-01-10T06:10:57;102871.54;;;-4.48;89.11
77017;BME280;65949;53.132;17.930;2024-01-10T06:13:24;102873.81;;;-4.47;89.05
77017;BME280;65949;53.132;17.930;2024-01-10T06:15:50;102872.27;;;-4.46;89.19
77017;BME280;65949;53.132;17.930;2024-01-10T06:18:17;102873.34;;;-4.45;89.29
77017;BME280;65949;53.132;17.930;2024-01-10T06:20:43;102876.91;;;-4.43;89.41
77017;BME280;65949;53.132;17.930;2024-01-10T06:23:10;102874.83;;;-4.42;89.44
77017;BME280;65949;53.132;17.930;2024-01-10T06:25:37;102874.45;;;-4.41;89.18
77017;BME280;65949;53.132;17.930;2024-01-10T06:28:04;102878.67;;;-4.41;89.23
77017;BME280;65949;53.132;17.930;2024-01-10T06:30:31;102876.92;;;-4.38;89.63
77017;BME280;65949;53.132;17.930;2024-01-10T06:32:58;102873.61;;;-4.36;89.83
77017;BME280;65949;53.132;17.930;2024-01-10T06:35:24;102875.14;;;-4.36;89.56
77017;BME280;65949;53.132;17.930;2024-01-10T06:37:51;102878.78;;;-4.35;89.89
77017;BME280;65949;53.132;17.930;2024-01-10T06:40:18;102881.30;;;-4.35;89.74
77017;BME280;65949;53.132;17.930;2024-01-10T06:42:44;102879.95;;;-4.32;89.77
77017;BME280;65949;53.132;17.930;2024-01-10T06:45:11;102876.88;;;-4.32;89.97
77017;BME280;65949;53.132;17.930;2024-01-10T06:47:38;102876.08;;;-4.33;90.06
77017;BME280;65949;53.132;17.930;2024-01-10T06:50:06;102876.27;;;-4.33;90.00
77017;BME280;65949;53.132;17.930;2024-01-10T06:52:32;102876.55;;;-4.30;89.95
77017;BME280;65949;53.132;17.930;2024-01-10T06:54:59;102872.10;;;-4.27;90.02
77017;BME280;65949;53.132;17.930;2024-01-10T06:57:26;102873.93;;;-4.21;90.09
77017;BME280;65949;53.132;17.930;2024-01-10T06:59:53;102871.54;;;-4.18;90.23
77017;BME280;65949;53.132;17.930;2024-01-10T07:02:20;102868.42;;;-4.17;90.13
77017;BME280;65949;53.132;17.930;2024-01-10T07:04:46;102868.52;;;-4.16;90.23
77017;BME280;65949;53.132;17.930;2024-01-10T07:07:14;102869.96;;;-4.15;90.12
77017;BME280;65949;53.132;17.930;2024-01-10T07:09:41;102872.70;;;-4.13;90.35
77017;BME280;65949;53.132;17.930;2024-01-10T07:12:07;102868.84;;;-4.11;90.34
77017;BME280;65949;53.132;17.930;2024-01-10T07:14:34;102868.98;;;-4.08;90.19
77017;BME280;65949;53.132;17.930;2024-01-10T07:17:01;102866.86;;;-4.05;90.36
77017;BME280;65949;53.132;17.930;2024-01-10T07:19:28;102861.91;;;-4.02;90.15
77017;BME280;65949;53.132;17.930;2024-01-10T07:21:55;102863.22;;;-3.99;90.17
77017;BME280;65949;53.132;17.930;2024-01-10T07:24:22;102862.27;;;-3.97;90.17
77017;BME280;65949;53.132;17.930;2024-01-10T07:26:48;102863.83;;;-3.93;90.47
77017;BME280;65949;53.132;17.930;2024-01-10T07:29:15;102864.95;;;-3.92;90.36
77017;BME280;65949;53.132;17.930;2024-01-10T07:31:41;102856.98;;;-3.90;90.34
77017;BME280;65949;53.132;17.930;2024-01-10T07:34:08;102855.29;;;-3.87;90.30
77017;BME280;65949;53.132;17.930;2024-01-10T07:36:41;102853.83;;;-3.86;90.28
77017;BME280;65949;53.132;17.930;2024-01-10T07:39:09;102862.97;;;-3.80;90.35
77017;BME280;65949;53.132;17.930;2024-01-10T07:41:35;102866.14;;;-3.77;90.49
77017;BME280;65949;53.132;17.930;2024-01-10T07:44:03;102868.09;;;-3.76;90.15
77017;BME280;65949;53.132;17.930;2024-01-10T07:46:30;102865.05;;;-3.74;90.23
77017;BME280;65949;53.132;17.930;2024-01-10T07:48:56;102866.77;;;-3.72;90.37
77017;BME280;65949;53.132;17.930;2024-01-10T07:51:23;102871.48;;;-3.71;90.31
77017;BME280;65949;53.132;17.930;2024-01-10T07:53:49;102877.73;;;-3.71;90.17
77017;BME280;65949;53.132;17.930;2024-01-10T07:56:16;102878.76;;;-3.71;90.35
77017;BME280;65949;53.132;17.930;2024-01-10T07:58:42;102878.66;;;-3.69;90.46
77017;BME280;65949;53.132;17.930;2024-01-10T08:01:09;102875.90;;;-3.69;90.33
77017;BME280;65949;53.132;17.930;2024-01-10T08:03:37;102878.06;;;-3.68;90.27
77017;BME280;65949;53.132;17.930;2024-01-10T08:06:04;102881.08;;;-3.67;90.29
77017;BME280;65949;53.132;17.930;2024-01-10T08:08:30;102883.82;;;-3.65;90.35
77017;BME280;65949;53.132;17.930;2024-01-10T08:10:57;102879.78;;;-3.63;90.15
77017;BME280;65949;53.132;17.930;2024-01-10T08:13:24;102876.63;;;-3.60;90.26
77017;BME280;65949;53.132;17.930;2024-01-10T08:15:50;102876.84;;;-3.55;90.03
77017;BME280;65949;53.132;17.930;2024-01-10T08:18:17;102876.92;;;-3.51;90.03
77017;BME280;65949;53.132;17.930;2024-01-10T08:20:44;102878.98;;;-3.50;90.37
77017;BME280;65949;53.132;17.930;2024-01-10T08:23:10;102884.26;;;-3.50;90.27
77017;BME280;65949;53.132;17.930;2024-01-10T08:25:37;102885.95;;;-3.50;90.08
77017;BME280;65949;53.132;17.930;2024-01-10T08:28:04;102891.90;;;-3.50;90.07
77017;BME280;65949;53.132;17.930;2024-01-10T08:30:31;102891.20;;;-3.49;89.98
77017;BME280;65949;53.132;17.930;2024-01-10T08:32:58;102886.19;;;-3.46;89.88
77017;BME280;65949;53.132;17.930;2024-01-10T08:35:26;102889.50;;;-3.40;89.85
77017;BME280;65949;53.132;17.930;2024-01-10T08:37:53;102890.42;;;-3.36;89.78
77017;BME280;65949;53.132;17.930;2024-01-10T08:40:19;102895.98;;;-3.33;90.08
77017;BME280;65949;53.132;17.930;2024-01-10T08:42:47;102896.55;;;-3.31;90.19
77017;BME280;65949;53.132;17.930;2024-01-10T08:45:14;102889.77;;;-3.34;90.19
77017;BME280;65949;53.132;17.930;2024-01-10T08:47:41;102890.18;;;-3.33;90.10
77017;BME280;65949;53.132;17.930;2024-01-10T08:50:08;102896.73;;;-3.29;90.46
77017;BME280;65949;53.132;17.930;2024-01-10T08:52:35;102898.78;;;-3.27;90.32
77017;BME280;65949;53.132;17.930;2024-01-10T08:55:05;102898.25;;;-3.24;90.68
77017;BME280;65949;53.132;17.930;2024-01-10T08:57:32;102902.02;;;-3.20;90.58
77017;BME280;65949;53.132;17.930;2024-01-10T08:59:59;102905.67;;;-3.17;90.62
77017;BME280;65949;53.132;17.930;2024-01-10T09:02:26;102908.21;;;-3.14;90.64
77017;BME280;65949;53.132;17.930;2024-01-10T09:04:54;102911.14;;;-3.12;90.68
77017;BME280;65949;53.132;17.930;2024-01-10T09:07:21;102912.30;;;-3.09;90.64
77017;BME280;65949;53.132;17.930;2024-01-10T09:09:47;102912.26;;;-3.06;90.61
77017;BME280;65949;53.132;17.930;2024-01-10T09:12:14;102908.89;;;-3.05;90.83
77017;BME280;65949;53.132;17.930;2024-01-10T09:14:41;102906.24;;;-3.03;90.53
77017;BME280;65949;53.132;17.930;2024-01-10T09:17:07;102902.40;;;-3.02;90.44
77017;BME280;65949;53.132;17.930;2024-01-10T09:19:34;102899.36;;;-2.98;90.29
77017;BME280;65949;53.132;17.930;2024-01-10T09:22:00;102895.70;;;-2.92;90.36
77017;BME280;65949;53.132;17.930;2024-01-10T09:24:27;102894.13;;;-2.89;90.31
77017;BME280;65949;53.132;17.930;2024-01-10T09:26:54;102889.73;;;-2.89;90.49
77017;BME280;65949;53.132;17.930;2024-01-10T09:29:21;102880.04;;;-2.89;90.33
77017;BME280;65949;53.132;17.930;2024-01-10T09:31:47;102872.67;;;-2.84;90.28
77017;BME280;65949;53.132;17.930;2024-01-10T09:34:14;102867.81;;;-2.78;90.41
77017;BME280;65949;53.132;17.930;2024-01-10T09:36:40;102874.26;;;-2.75;90.06
77017;BME280;65949;53.132;17.930;2024-01-10T09:39:08;102868.83;;;-2.69;90.06
77017;BME280;65949;53.132;17.930;2024-01-10T09:41:46;102863.34;;;-2.64;90.05
77017;BME280;65949;53.132;17.930;2024-01-10T09:44:17;102857.73;;;-2.57;90.05
77017;BME280;65949;53.132;17.930;2024-01-10T09:46:47;102851.44;;;-2.52;89.90
77017;BME280;65949;53.132;17.930;2024-01-10T09:49:16;102848.97;;;-2.49;89.59
77017;BME280;65949;53.132;17.930;2024-01-10T09:51:44;102848.16;;;-2.45;89.66
77017;BME280;65949;53.132;17.930;2024-01-10T09:54:13;102843.12;;;-2.46;89.58
77017;BME280;65949;53.132;17.930;2024-01-10T09:56:42;102841.73;;;-2.44;89.58
77017;BME280;65949;53.132;17.930;2024-01-10T09:59:10;102836.23;;;-2.43;89.60
77017;BME280;65949;53.132;17.930;2024-01-10T10:01:37;102829.65;;;-2.41;89.61
77017;BME280;65949;53.132;17.930;2024-01-10T10:04:09;102829.58;;;-2.38;89.34
77017;BME280;65949;53.132;17.930;2024-01-10T10:06:37;102835.95;;;-2.35;89.50
77017;BME280;65949;53.132;17.930;2024-01-10T10:09:07;102837.45;;;-2.32;89.30
77017;BME280;65949;53.132;17.930;2024-01-10T10:11:34;102841.31;;;-2.27;89.51
77017;BME280;65949;53.132;17.930;2024-01-10T10:14:14;102842.19;;;-2.25;89.19
77017;BME280;65949;53.132;17.930;2024-01-10T10:16:42;102847.94;;;-2.22;89.09
77017;BME280;65949;53.132;17.930;2024-01-10T10:19:09;102842.82;;;-2.22;88.96
77017;BME280;65949;53.132;17.930;2024-01-10T10:21:36;102841.17;;;-2.23;88.90
77017;BME280;65949;53.132;17.930;2024-01-10T10:24:03;102840.65;;;-2.25;88.89
77017;BME280;65949;53.132;17.930;2024-01-10T10:26:35;102845.58;;;-2.25;88.85
77017;BME280;65949;53.132;17.930;2024-01-10T10:29:02;102848.52;;;-2.28;88.88
77017;BME280;65949;53.132;17.930;2024-01-10T10:31:29;102851.79;;;-2.26;89.02
77017;BME280;65949;53.132;17.930;2024-01-10T10:34:00;102860.09;;;-2.25;88.95
77017;BME280;65949;53.132;17.930;2024-01-10T10:36:31;102853.95;;;-2.32;88.81
77017;BME280;65949;53.132;17.930;2024-01-10T10:39:00;102856.80;;;-2.36;89.13
77017;BME280;65949;53.132;17.930;2024-01-10T10:41:31;102857.48;;;-2.40;89.07
77017;BME280;65949;53.132;17.930;2024-01-10T10:43:58;102853.86;;;-2.44;89.35
77017;BME280;65949;53.132;17.930;2024-01-10T10:46:26;102854.61;;;-2.47;89.39
77017;BME280;65949;53.132;17.930;2024-01-10T10:48:54;102852.63;;;-2.55;89.34
77017;BME280;65949;53.132;17.930;2024-01-10T10:51:33;102855.27;;;-2.58;89.52
77017;BME280;65949;53.132;17.930;2024-01-10T10:54:00;102851.80;;;-2.62;90.02
77017;BME280;65949;53.132;17.930;2024-01-10T10:56:29;102852.48;;;-2.66;89.98
77017;BME280;65949;53.132;17.930;2024-01-10T10:59:00;102842.70;;;-2.70;90.01
77017;BME280;65949;53.132;17.930;2024-01-10T11:01:28;102844.84;;;-2.69;90.09
77017;BME280;65949;53.132;17.930;2024-01-10T11:03:55;102844.13;;;-2.71;89.85
77017;BME280;65949;53.132;17.930;2024-01-10T11:06:22;102841.72;;;-2.70;90.16
77017;BME280;65949;53.132;17.930;2024-01-10T11:08:53;102839.21;;;-2.69;90.15
77017;BME280;65949;53.132;17.930;2024-01-10T11:11:32;102836.26;;;-2.68;89.92
77017;BME280;65949;53.132;17.930;2024-01-10T11:14:26;102836.02;;;-2.69;90.20
77017;BME280;65949;53.132;17.930;2024-01-10T11:17:21;102840.06;;;-2.68;90.34
77017;BME280;65949;53.132;17.930;2024-01-10T11:25:20;102832.73;;;-2.86;90.97
77017;BME280;65949;53.132;17.930;2024-01-10T11:27:52;102823.10;;;-2.87;91.00
77017;BME280;65949;53.132;17.930;2024-01-10T11:30:34;102818.69;;;-2.87;91.00
77017;BME280;65949;53.132;17.930;2024-01-10T11:36:17;102820.71;;;-2.85;90.90
77017;BME280;65949;53.132;17.930;2024-01-10T11:41:34;102815.40;;;-2.87;90.86
77017;BME280;65949;53.132;17.930;2024-01-10T11:46:46;102816.73;;;-2.91;90.89
77017;BME280;65949;53.132;17.930;2024-01-10T11:49:15;102818.82;;;-2.94;90.79
77017;BME280;65949;53.132;17.930;2024-01-10T11:51:47;102813.21;;;-2.92;90.90
77017;BME280;65949;53.132;17.930;2024-01-10T11:54:37;102810.86;;;-2.90;90.83
77017;BME280;65949;53.132;17.930;2024-01-10T11:57:14;102806.35;;;-2.91;90.51
77017;BME280;65949;53.132;17.930;2024-01-10T11:59:42;102801.58;;;-2.93;90.64
77017;BME280;65949;53.132;17.930;2024-01-10T12:02:14;102795.80;;;-2.93;90.43
77017;BME280;65949;53.132;17.930;2024-01-10T12:04:41;102797.11;;;-2.94;90.41
77017;BME280;65949;53.132;17.930;2024-01-10T12:07:08;102798.66;;;-2.95;90.41
77017;BME280;65949;53.132;17.930;2024-01-10T12:09:35;102799.45;;;-2.96;90.33
77017;BME280;65949;53.132;17.930;2024-01-10T12:12:05;102796.91;;;-2.97;90.38
77017;BME280;65949;53.132;17.930;2024-01-10T12:14:34;102799.02;;;-3.00;90.48
77017;BME280;65949;53.132;17.930;2024-01-10T12:17:01;102798.42;;;-3.03;90.38
77017;BME280;65949;53.132;17.930;2024-01-10T12:19:28;102794.41;;;-3.04;90.38
77017;BME280;65949;53.132;17.930;2024-01-10T12:21:54;102792.46;;;-3.05;90.37
77017;BME280;65949;53.132;17.930;2024-01-10T12:24:22;102793.33;;;-3.03;90.37
77017;BME280;65949;53.132;17.930;2024-01-10T12:26:49;102795.71;;;-3.05;90.29
77017;BME280;65949;53.132;17.930;2024-01-10T12:29:19;102799.73;;;-3.09;90.41
77017;BME280;65949;53.132;17.930;2024-01-10T12:31:49;102800.14;;;-3.13;90.50
77017;BME280;65949;53.132;17.930;2024-01-10T12:34:16;102798.61;;;-3.12;90.94
77017;BME280;65949;53.132;17.930;2024-01-10T12:36:43;102798.78;;;-3.17;90.55
77017;BME280;65949;53.132;17.930;2024-01-10T12:39:11;102796.09;;;-3.20;90.66
77017;BME280;65949;53.132;17.930;2024-01-10T12:41:40;102793.83;;;-3.21;90.79
77017;BME280;65949;53.132;17.930;2024-01-10T12:44:07;102790.87;;;-3.18;90.74
77017;BME280;65949;53.132;17.930;2024-01-10T12:46:33;102785.57;;;-3.20;90.67
77017;BME280;65949;53.132;17.930;2024-01-10T12:49:04;102779.95;;;-3.22;90.68
77017;BME280;65949;53.132;17.930;2024-01-10T12:51:32;102780.35;;;-3.23;90.80
77017;BME280;65949;53.132;17.930;2024-01-10T12:54:00;102776.55;;;-3.22;90.87
77017;BME280;65949;53.132;17.930;2024-01-10T12:56:27;102781.54;;;-3.23;90.90